createdAt,value
2022-10-30T00:01:01.808Z,5.00
2022-10-30T00:03:28.412Z,5.90
2022-10-30T00:05:55.314Z,5.38
2022-10-30T00:08:25.474Z,5.20
2022-10-30T00:10:52.643Z,5.80
2022-10-30T00:13:20.110Z,5.75
2022-10-30T00:15:48.778Z,6.45
2022-10-30T00:18:15.626Z,6.63
2022-10-30T00:20:42.263Z,6.78
2022-10-30T00:23:09.048Z,6.20
2022-10-30T00:25:36.501Z,6.70
2022-10-30T00:28:06.753Z,6.88
2022-10-30T00:30:34.509Z,6.18
2022-10-30T00:33:01.546Z,6.00
2022-10-30T00:35:28.288Z,6.28
2022-10-30T00:37:55.172Z,5.72
2022-10-30T00:40:22.335Z,5.75
2022-10-30T00:42:49.006Z,6.25
2022-10-30T00:45:17.295Z,5.32
2022-10-30T00:47:53.543Z,6.03
2022-10-30T00:50:30.575Z,5.78
2022-10-30T00:52:57.369Z,5.03
2022-10-30T00:55:29.410Z,5.18
2022-10-30T00:57:57.330Z,5.82
2022-10-30T01:00:27.263Z,5.22
2022-10-30T01:02:54.214Z,5.72
2022-10-30T01:05:23.636Z,5.60
2022-10-30T01:07:50.265Z,5.32
2022-10-30T01:10:18.062Z,4.85
2022-10-30T01:12:46.368Z,5.15
2022-10-30T01:15:14.101Z,4.57
2022-10-30T01:17:49.772Z,5.40
2022-10-30T01:20:28.037Z,5.55
2022-10-30T01:23:06.233Z,6.00
2022-10-30T01:25:35.933Z,6.07
2022-10-30T01:28:30.687Z,5.30
2022-10-30T01:31:16.348Z,5.03
2022-10-30T01:33:42.866Z,5.13
2022-10-30T01:36:39.888Z,4.25
2022-10-30T01:39:15.548Z,4.60
2022-10-30T01:41:42.225Z,3.92
2022-10-30T01:44:17.925Z,3.42
2022-10-30T01:46:53.825Z,4.57
2022-10-30T01:49:40.098Z,7.13
2022-10-30T01:52:18.879Z,8.35
2022-10-30T01:55:35.814Z,7.80
2022-10-30T01:58:28.457Z,8.48
2022-10-30T02:00:58.803Z,7.10
2022-10-30T02:03:26.916Z,6.70
2022-10-30T02:05:54.616Z,6.78
2022-10-30T02:08:24.518Z,6.68
2022-10-30T02:10:53.609Z,7.03
2022-10-30T02:13:21.171Z,6.63
2022-10-30T02:15:48.911Z,6.50
2022-10-30T02:18:16.004Z,6.20
2022-10-30T02:20:42.713Z,6.25
2022-10-30T02:23:13.434Z,7.00
2022-10-30T02:25:40.151Z,7.30
2022-10-30T02:28:06.762Z,6.15
2022-10-30T02:30:33.703Z,6.63
2022-10-30T02:33:00.637Z,7.05
2022-10-30T02:35:27.610Z,7.72
2022-10-30T02:37:54.466Z,7.45
2022-10-30T02:40:21.298Z,7.38
2022-10-30T02:42:55.107Z,7.32
2022-10-30T02:45:22.446Z,7.80
2022-10-30T02:47:49.289Z,7.95
2022-10-30T02:50:16.602Z,7.60
2022-10-30T02:52:43.212Z,6.50
2022-10-30T02:55:09.988Z,8.00
2022-10-30T02:57:36.602Z,7.20
2022-10-30T03:00:04.618Z,11.20
2022-10-30T03:02:31.206Z,9.75
2022-10-30T03:04:57.989Z,9.57
2022-10-30T03:07:24.589Z,8.93
2022-10-30T03:09:52.159Z,9.10
2022-10-30T03:12:18.774Z,8.88
2022-10-30T03:14:45.605Z,8.02
2022-10-30T03:17:12.280Z,8.10
2022-10-30T03:19:40.879Z,7.63
2022-10-30T03:22:07.920Z,8.45
2022-10-30T03:24:34.803Z,7.78
2022-10-30T03:27:01.347Z,7.65
2022-10-30T03:29:28.837Z,8.23
2022-10-30T03:31:55.482Z,7.80
2022-10-30T03:34:22.089Z,8.05
2022-10-30T03:36:49.010Z,7.75
2022-10-30T03:39:15.581Z,8.23
2022-10-30T03:41:43.426Z,6.80
2022-10-30T03:44:10.084Z,7.70
2022-10-30T03:46:36.868Z,7.30
2022-10-30T03:49:03.548Z,6.90
2022-10-30T03:51:30.137Z,6.93
2022-10-30T03:53:56.851Z,6.07
2022-10-30T03:56:23.418Z,5.97
2022-10-30T03:58:50.095Z,6.10
2022-10-30T04:01:16.707Z,5.03
2022-10-30T04:03:43.419Z,5.38
2022-10-30T04:06:10.210Z,5.57
2022-10-30T04:08:37.072Z,5.22
2022-10-30T04:11:04.107Z,5.22
2022-10-30T04:13:30.737Z,5.68
2022-10-30T04:15:58.375Z,5.32
2022-10-30T04:18:26.225Z,4.50
2022-10-30T04:20:52.860Z,5.78
2022-10-30T04:23:20.467Z,6.10
2022-10-30T04:25:47.317Z,5.43
2022-10-30T04:28:14.810Z,5.60
2022-10-30T04:30:41.643Z,6.47
2022-10-30T04:33:11.385Z,6.20
2022-10-30T04:35:38.711Z,7.43
2022-10-30T04:38:07.999Z,8.80
2022-10-30T04:40:37.276Z,5.13
2022-10-30T04:43:04.938Z,6.25
2022-10-30T04:45:32.052Z,5.25
2022-10-30T04:48:07.122Z,5.75
2022-10-30T04:50:34.855Z,6.00
2022-10-30T04:53:03.090Z,6.22
2022-10-30T04:55:30.651Z,6.75
2022-10-30T04:57:59.283Z,6.13
2022-10-30T05:00:26.959Z,7.35
2022-10-30T05:02:53.610Z,7.68
2022-10-30T05:05:20.709Z,8.18
2022-10-30T05:07:47.464Z,8.68
2022-10-30T05:10:14.995Z,9.00
2022-10-30T05:12:43.322Z,9.93
2022-10-30T05:15:11.382Z,9.57
2022-10-30T05:17:38.249Z,9.20
2022-10-30T05:20:06.071Z,9.00
2022-10-30T05:22:33.047Z,8.73
2022-10-30T05:24:59.666Z,8.38
2022-10-30T05:27:26.254Z,8.43
2022-10-30T05:29:52.828Z,9.27
2022-10-30T05:32:19.437Z,9.27
2022-10-30T05:34:46.163Z,8.68
2022-10-30T05:37:12.718Z,7.70
2022-10-30T05:39:39.350Z,8.10
2022-10-30T05:42:09.785Z,7.88
2022-10-30T05:44:59.904Z,8.30
2022-10-30T05:47:25.987Z,9.07
2022-10-30T05:49:52.567Z,8.35
2022-10-30T05:52:19.121Z,7.90
2022-10-30T05:54:45.727Z,7.50
2022-10-30T05:57:12.309Z,7.78
2022-10-30T05:59:38.932Z,7.38
2022-10-30T06:02:05.699Z,8.70
2022-10-30T06:04:32.333Z,8.07
2022-10-30T06:06:58.946Z,8.75
2022-10-30T06:09:25.587Z,8.13
2022-10-30T06:11:53.608Z,9.45
2022-10-30T06:14:20.266Z,10.93
2022-10-30T06:16:47.041Z,9.63
2022-10-30T06:19:17.479Z,9.15
2022-10-30T06:21:46.342Z,9.90
2022-10-30T06:24:13.827Z,9.40
2022-10-30T06:26:40.942Z,10.48
2022-10-30T06:29:07.631Z,11.10
2022-10-30T06:31:34.339Z,10.70
2022-10-30T06:34:01.085Z,8.13
2022-10-30T06:36:27.755Z,8.95
2022-10-30T06:38:54.351Z,10.38
2022-10-30T06:41:24.614Z,9.82
2022-10-30T06:43:56.667Z,9.70
2022-10-30T06:46:25.770Z,9.73
2022-10-30T06:48:55.844Z,11.20
2022-10-30T06:51:22.639Z,12.95
2022-10-30T06:53:49.220Z,13.73
2022-10-30T06:56:15.849Z,13.07
2022-10-30T06:58:43.121Z,11.90
2022-10-30T07:01:09.810Z,13.80
2022-10-30T07:03:36.425Z,13.02
2022-10-30T07:06:03.634Z,12.68
2022-10-30T07:08:30.237Z,13.18
2022-10-30T07:10:58.489Z,14.13
2022-10-30T07:13:25.632Z,13.77
2022-10-30T07:15:52.232Z,12.95
2022-10-30T07:18:18.861Z,13.00
2022-10-30T07:20:45.517Z,12.65
2022-10-30T07:23:12.101Z,12.10
2022-10-30T07:25:38.665Z,12.82
2022-10-30T07:28:05.483Z,12.70
2022-10-30T07:30:32.108Z,14.45
2022-10-30T07:33:01.051Z,12.27
2022-10-30T07:35:28.887Z,13.48
2022-10-30T07:37:56.065Z,12.73
2022-10-30T07:40:23.275Z,12.00
2022-10-30T07:42:49.918Z,12.65
2022-10-30T07:45:16.811Z,12.65
2022-10-30T07:47:43.875Z,12.68
2022-10-30T07:50:11.468Z,12.50
2022-10-30T07:52:38.204Z,12.10
2022-10-30T07:55:05.960Z,12.88
2022-10-30T07:57:40.925Z,12.02
2022-10-30T08:00:13.252Z,12.38
2022-10-30T08:02:40.187Z,13.30
2022-10-30T08:05:07.640Z,13.57
2022-10-30T08:07:37.807Z,13.52
2022-10-30T08:10:05.895Z,13.13
2022-10-30T08:12:33.459Z,19.25
2022-10-30T08:15:00.523Z,19.30
2022-10-30T08:17:27.192Z,19.60
2022-10-30T08:19:53.952Z,15.60
2022-10-30T08:22:21.386Z,14.35
2022-10-30T08:24:48.023Z,14.07
2022-10-30T08:27:14.616Z,14.07
2022-10-30T08:29:41.956Z,13.30
2022-10-30T08:32:08.693Z,13.07
2022-10-30T08:34:35.441Z,12.93
2022-10-30T08:37:02.092Z,14.48
2022-10-30T08:39:28.804Z,15.07
2022-10-30T08:41:58.879Z,14.90
2022-10-30T08:44:25.720Z,16.92
2022-10-30T08:46:52.368Z,14.93
2022-10-30T08:49:18.970Z,12.82
2022-10-30T08:51:46.275Z,12.52
2022-10-30T08:54:12.980Z,13.35
2022-10-30T08:56:39.572Z,11.75
2022-10-30T08:59:06.256Z,12.25
2022-10-30T09:01:32.931Z,12.90
2022-10-30T09:03:59.735Z,11.85
2022-10-30T09:06:26.297Z,11.43
2022-10-30T09:08:52.901Z,11.38
2022-10-30T09:11:19.592Z,11.07
2022-10-30T09:13:46.160Z,11.00
2022-10-30T09:16:12.719Z,11.75
2022-10-30T09:18:39.410Z,11.77
2022-10-30T09:21:06.062Z,12.20
2022-10-30T09:23:32.870Z,11.07
2022-10-30T09:25:59.562Z,11.98
2022-10-30T09:28:26.139Z,11.13
2022-10-30T09:30:56.314Z,10.77
2022-10-30T09:33:23.257Z,11.60
2022-10-30T09:35:49.821Z,11.82
2022-10-30T09:38:16.391Z,11.68
2022-10-30T09:40:57.887Z,11.70
2022-10-30T09:43:58.651Z,11.00
2022-10-30T09:46:41.388Z,11.40
2022-10-30T09:49:45.820Z,10.77
2022-10-30T09:52:27.766Z,10.73
2022-10-30T09:55:22.425Z,9.40
2022-10-30T09:57:56.795Z,11.23
2022-10-30T10:00:51.579Z,10.43
2022-10-30T10:06:02.543Z,9.38
2022-10-30T10:08:39.129Z,9.23
2022-10-30T10:11:20.137Z,9.60
2022-10-30T10:14:26.283Z,9.13
2022-10-30T10:16:54.018Z,8.65
2022-10-30T10:19:22.325Z,8.43
2022-10-30T10:21:53.392Z,9.35
2022-10-30T10:24:27.248Z,10.00
2022-10-30T10:27:08.757Z,8.63
2022-10-30T10:30:03.447Z,9.30
2022-10-30T10:38:38.594Z,8.20
2022-10-30T10:41:23.757Z,7.90
2022-10-30T10:44:19.027Z,7.50
2022-10-30T10:47:41.099Z,7.07
2022-10-30T10:50:17.955Z,7.13
2022-10-30T10:53:03.449Z,7.70
2022-10-30T10:55:36.619Z,7.00
2022-10-30T10:58:25.825Z,7.20
2022-10-30T11:00:53.350Z,7.03
2022-10-30T11:03:32.403Z,7.28
2022-10-30T11:06:22.409Z,7.53
2022-10-30T11:08:49.433Z,6.72
2022-10-30T11:11:16.127Z,6.63
2022-10-30T11:13:44.583Z,6.50
2022-10-30T11:16:38.296Z,6.95
2022-10-30T11:19:09.055Z,6.43
2022-10-30T11:21:43.262Z,6.88
2022-10-30T11:24:27.780Z,7.70
2022-10-30T11:26:57.208Z,6.82
2022-10-30T11:29:27.914Z,6.65
2022-10-30T11:32:05.686Z,6.75
2022-10-30T11:34:33.585Z,6.35
2022-10-30T11:37:00.337Z,6.50
2022-10-30T11:39:33.932Z,5.88
2022-10-30T11:42:14.648Z,6.18
2022-10-30T11:44:49.398Z,6.07
2022-10-30T11:47:18.571Z,5.72
2022-10-30T11:49:53.836Z,5.95
2022-10-30T11:52:24.629Z,6.70
2022-10-30T11:55:11.432Z,5.93
2022-10-30T11:57:43.584Z,5.90
2022-10-30T12:00:25.052Z,5.90
2022-10-30T12:02:53.896Z,7.65
2022-10-30T12:05:37.073Z,6.28
2022-10-30T12:08:09.464Z,6.22
2022-10-30T12:10:47.638Z,6.32
2022-10-30T12:13:19.211Z,6.70
2022-10-30T12:15:48.816Z,6.40
2022-10-30T12:20:58.612Z,6.13
2022-10-30T12:23:27.994Z,6.25
2022-10-30T12:26:12.593Z,5.95
2022-10-30T12:28:40.540Z,6.88
2022-10-30T12:31:28.346Z,6.32
2022-10-30T12:34:28.292Z,6.43
2022-10-30T12:37:08.569Z,6.55
2022-10-30T12:39:53.965Z,6.35
2022-10-30T12:42:25.374Z,6.30
2022-10-30T12:45:00.346Z,6.07
2022-10-30T12:47:39.008Z,5.72
2022-10-30T12:50:22.202Z,5.88
2022-10-30T12:53:00.506Z,6.65
2022-10-30T12:55:34.216Z,5.57
2022-10-30T12:58:14.784Z,6.05
2022-10-30T13:00:51.988Z,5.85
2022-10-30T13:03:29.078Z,5.45
2022-10-30T13:06:01.070Z,5.70
2022-10-30T13:08:39.880Z,5.75
2022-10-30T13:11:24.472Z,5.32
2022-10-30T13:13:54.496Z,5.53
2022-10-30T13:16:29.440Z,5.40
2022-10-30T13:19:03.182Z,5.40
2022-10-30T13:22:00.861Z,5.30
2022-10-30T13:25:03.582Z,5.03
2022-10-30T13:27:33.960Z,5.97
2022-10-30T13:30:06.973Z,5.93
2022-10-30T13:33:04.960Z,5.63
2022-10-30T13:35:43.792Z,5.45
2022-10-30T13:38:22.401Z,5.13
2022-10-30T13:41:11.236Z,5.53
2022-10-30T13:43:43.856Z,5.05
2022-10-30T13:46:23.652Z,5.93
2022-10-30T13:49:11.471Z,5.18
2022-10-30T13:51:49.194Z,5.47
2022-10-30T13:54:44.844Z,5.55
2022-10-30T13:57:20.374Z,5.78
2022-10-30T14:00:01.624Z,4.70
2022-10-30T14:02:50.833Z,5.88
2022-10-30T14:05:30.251Z,5.32
2022-10-30T14:08:25.979Z,5.13
2022-10-30T14:10:59.501Z,6.13
2022-10-30T14:13:55.230Z,5.32
2022-10-30T14:17:14.104Z,5.55
2022-10-30T14:20:08.785Z,5.43
2022-10-30T14:22:40.753Z,6.30
2022-10-30T14:25:15.515Z,5.65
2022-10-30T14:27:42.528Z,5.88
2022-10-30T14:30:19.585Z,5.97
2022-10-30T14:32:51.345Z,5.60
2022-10-30T14:35:38.308Z,12.25
2022-10-30T14:38:10.620Z,12.00
2022-10-30T14:41:20.199Z,14.65
2022-10-30T14:43:49.497Z,10.25
2022-10-30T14:46:42.506Z,14.10
2022-10-30T14:49:33.684Z,13.45
2022-10-30T14:52:26.767Z,9.27
2022-10-30T14:55:17.620Z,6.63
2022-10-30T14:58:05.867Z,8.30
2022-10-30T15:00:43.127Z,6.80
2022-10-30T15:03:14.835Z,7.40
2022-10-30T15:05:56.231Z,10.48
2022-10-30T15:08:53.850Z,8.88
2022-10-30T15:11:51.808Z,8.63
2022-10-30T15:14:53.560Z,7.95
2022-10-30T15:17:32.310Z,9.48
2022-10-30T15:20:02.457Z,8.80
2022-10-30T15:22:30.599Z,8.27
2022-10-30T15:24:58.479Z,8.27
2022-10-30T15:27:26.330Z,8.77
2022-10-30T15:30:00.194Z,8.95
2022-10-30T15:32:27.108Z,9.18
2022-10-30T15:34:59.944Z,8.63
2022-10-30T15:37:27.404Z,8.32
2022-10-30T15:40:30.466Z,9.02
2022-10-30T15:42:59.400Z,13.52
2022-10-30T15:45:37.203Z,11.15
2022-10-30T15:48:19.762Z,9.90
2022-10-30T15:51:05.476Z,11.15
2022-10-30T15:53:43.107Z,11.43
2022-10-30T15:56:41.137Z,11.43
2022-10-30T15:59:25.640Z,10.18
2022-10-30T16:01:55.019Z,10.10
2022-10-30T16:04:27.234Z,9.88
2022-10-30T16:06:56.577Z,9.23
2022-10-30T16:09:24.401Z,8.55
2022-10-30T16:11:53.873Z,9.13
2022-10-30T16:14:25.930Z,8.43
2022-10-30T16:16:52.999Z,7.50
2022-10-30T16:19:31.592Z,7.25
2022-10-30T16:21:59.305Z,7.38
2022-10-30T16:24:45.450Z,7.65
2022-10-30T16:27:18.526Z,7.57
2022-10-30T16:29:54.022Z,7.65
2022-10-30T16:32:24.507Z,8.05
2022-10-30T16:34:58.942Z,7.85
2022-10-30T16:37:37.445Z,7.35
2022-10-30T16:40:14.242Z,8.80
2022-10-30T16:42:41.328Z,8.65
2022-10-30T16:45:10.933Z,8.48
2022-10-30T16:47:44.655Z,8.40
2022-10-30T16:50:15.371Z,8.90
2022-10-30T16:52:43.404Z,7.82
2022-10-30T16:55:21.288Z,8.55
2022-10-30T16:57:53.951Z,9.02
2022-10-30T17:00:26.054Z,9.10
2022-10-30T17:02:57.313Z,9.18
2022-10-30T17:05:29.492Z,9.40
2022-10-30T17:08:04.350Z,9.55
2022-10-30T17:10:56.726Z,9.90
2022-10-30T17:13:42.590Z,8.77
2022-10-30T17:16:21.899Z,6.68
2022-10-30T17:18:55.207Z,7.40
2022-10-30T17:21:26.893Z,6.80
2022-10-30T17:23:57.462Z,7.43
2022-10-30T17:26:25.758Z,9.10
2022-10-30T17:28:52.440Z,9.88
2022-10-30T17:31:23.213Z,9.45
2022-10-30T17:34:16.441Z,12.15
2022-10-30T17:36:43.581Z,11.50
2022-10-30T17:39:10.292Z,13.35
2022-10-30T17:41:37.379Z,11.27
2022-10-30T17:44:05.212Z,10.95
2022-10-30T17:46:32.164Z,9.25
2022-10-30T17:48:59.460Z,8.55
2022-10-30T17:51:26.787Z,8.65
2022-10-30T17:53:53.538Z,9.27
2022-10-30T17:56:27.659Z,9.20
2022-10-30T18:01:26.311Z,9.25
2022-10-30T18:03:57.582Z,9.23
2022-10-30T18:06:26.750Z,8.63
2022-10-30T18:08:53.731Z,8.95
2022-10-30T18:11:22.806Z,8.68
2022-10-30T18:13:51.296Z,8.20
2022-10-30T18:16:18.904Z,8.10
2022-10-30T18:18:45.620Z,7.43
2022-10-30T18:21:14.850Z,8.43
2022-10-30T18:23:56.964Z,7.18
2022-10-30T18:26:27.559Z,7.35
2022-10-30T18:28:54.857Z,6.88
2022-10-30T18:31:24.335Z,7.00
2022-10-30T18:33:51.404Z,6.20
2022-10-30T18:36:24.050Z,6.30
2022-10-30T18:38:54.704Z,5.72
2022-10-30T18:41:36.387Z,6.38
2022-10-30T18:44:03.922Z,6.97
2022-10-30T18:46:32.516Z,7.55
2022-10-30T18:48:59.177Z,8.85
2022-10-30T18:51:27.581Z,7.95
2022-10-30T18:53:56.660Z,6.13
2022-10-30T18:56:26.513Z,5.35
2022-10-30T18:58:56.779Z,5.60
2022-10-30T19:01:28.401Z,4.20
2022-10-30T19:03:55.182Z,3.35
2022-10-30T19:06:23.797Z,2.65
2022-10-30T19:08:50.742Z,2.00
2022-10-30T19:11:24.129Z,1.50
2022-10-30T19:13:53.143Z,1.10
2022-10-30T19:16:20.831Z,1.10
2022-10-30T19:18:48.597Z,1.10
2022-10-30T19:21:21.391Z,0.80
2022-10-30T19:23:48.614Z,1.10
2022-10-30T19:26:16.082Z,0.88
2022-10-30T19:28:43.721Z,1.02
2022-10-30T19:31:14.425Z,1.15
2022-10-30T19:33:41.659Z,0.98
2022-10-30T19:36:36.063Z,1.10
2022-10-30T19:39:08.949Z,1.20
2022-10-30T19:41:36.951Z,1.00
2022-10-30T19:44:03.956Z,1.15
2022-10-30T19:46:30.614Z,1.25
2022-10-30T19:48:58.649Z,1.30
2022-10-30T19:51:28.932Z,1.10
2022-10-30T19:53:56.001Z,1.38
2022-10-30T19:56:22.921Z,1.42
2022-10-30T19:58:49.872Z,2.05
2022-10-30T20:01:16.877Z,2.10
2022-10-30T20:03:43.814Z,2.38
2022-10-30T20:06:12.671Z,1.70
2022-10-30T20:08:39.724Z,1.80
2022-10-30T20:11:06.504Z,1.58
2022-10-30T20:13:33.775Z,1.88
2022-10-30T20:16:04.453Z,1.48
2022-10-30T20:18:33.186Z,1.30
2022-10-30T20:21:01.625Z,1.40
2022-10-30T20:23:28.948Z,1.40
2022-10-30T20:26:01.409Z,1.40
2022-10-30T20:28:31.800Z,1.63
2022-10-30T20:30:58.442Z,1.60
2022-10-30T20:33:26.703Z,1.60
2022-10-30T20:35:54.812Z,1.33
2022-10-30T20:38:27.298Z,1.60
2022-10-30T20:40:54.355Z,1.50
2022-10-30T20:43:35.225Z,1.20
2022-10-30T20:46:03.197Z,1.83
2022-10-30T20:48:30.186Z,1.88
2022-10-30T20:50:58.258Z,1.70
2022-10-30T20:53:25.039Z,2.15
2022-10-30T20:55:52.033Z,1.90
2022-10-30T20:58:19.010Z,2.05
2022-10-30T21:00:46.077Z,2.00
2022-10-30T21:03:15.697Z,2.78
2022-10-30T21:05:45.339Z,3.55
2022-10-30T21:08:13.738Z,3.53
2022-10-30T21:10:41.562Z,3.15
2022-10-30T21:13:09.463Z,3.22
2022-10-30T21:15:42.351Z,3.58
2022-10-30T21:18:11.058Z,4.28
2022-10-30T21:20:38.041Z,5.70
2022-10-30T21:23:05.580Z,5.97
2022-10-30T21:25:32.580Z,5.45
2022-10-30T21:27:59.918Z,5.70
2022-10-30T21:30:26.710Z,5.35
2022-10-30T21:32:53.431Z,4.28
2022-10-30T21:35:20.352Z,4.78
2022-10-30T21:37:47.149Z,5.05
2022-10-30T21:40:13.858Z,4.60
2022-10-30T21:42:40.522Z,4.72
2022-10-30T21:45:07.994Z,5.00
2022-10-30T21:47:34.643Z,4.90
2022-10-30T21:50:03.686Z,4.32
2022-10-30T21:52:33.589Z,4.30
2022-10-30T21:55:00.169Z,4.63
2022-10-30T21:57:28.080Z,4.47
2022-10-30T21:59:54.726Z,4.63
2022-10-30T22:02:21.762Z,3.60
2022-10-30T22:04:48.573Z,3.30
2022-10-30T22:07:18.018Z,2.47
2022-10-30T22:09:44.575Z,3.53
2022-10-30T22:12:11.195Z,3.25
2022-10-30T22:14:37.817Z,3.58
2022-10-30T22:17:04.631Z,3.25
2022-10-30T22:19:31.277Z,3.38
2022-10-30T22:21:57.865Z,3.25
2022-10-30T22:24:24.520Z,3.17
2022-10-30T22:26:51.095Z,2.88
2022-10-30T22:29:17.748Z,3.40
2022-10-30T22:31:44.300Z,3.42
2022-10-30T22:34:10.937Z,3.90
2022-10-30T22:36:37.725Z,3.95
2022-10-30T22:39:07.803Z,3.55
2022-10-30T22:41:37.508Z,3.78
2022-10-30T22:44:08.080Z,3.55
2022-10-30T22:46:36.135Z,2.50
2022-10-30T22:49:03.535Z,2.95
2022-10-30T22:51:32.864Z,2.40
2022-10-30T22:54:02.060Z,3.22
2022-10-30T22:56:31.687Z,2.92
2022-10-30T22:59:01.383Z,3.20
2022-10-30T23:01:30.761Z,3.30
2022-10-30T23:03:59.814Z,3.50
2022-10-30T23:06:28.440Z,4.10
2022-10-30T23:08:57.179Z,3.60
2022-10-30T23:11:24.717Z,3.20
2022-10-30T23:13:51.776Z,2.90
2022-10-30T23:16:20.530Z,2.78
2022-10-30T23:18:47.175Z,3.05
2022-10-30T23:21:17.147Z,3.75
2022-10-30T23:23:43.953Z,3.60
2022-10-30T23:26:16.542Z,3.13
2022-10-30T23:28:44.555Z,2.80
2022-10-30T23:31:16.576Z,2.97
2022-10-30T23:33:43.177Z,2.58
2022-10-30T23:36:09.987Z,2.50
2022-10-30T23:38:36.567Z,2.00
2022-10-30T23:41:03.205Z,2.38
2022-10-30T23:43:29.804Z,1.77
2022-10-30T23:45:56.388Z,1.77
2022-10-30T23:48:23.128Z,1.63
2022-10-30T23:50:50.011Z,1.38
2022-10-30T23:53:16.560Z,1.20
2022-10-30T23:55:53.820Z,1.15
2022-10-30T23:58:21.343Z,1.00
